Time;durP1;ratioP1;P1;durP2;ratioP2;P2;SDS_P1;SDS_P2;PMS_P1;PMS_P2;Temp;Humidity;BMP_temperature;BMP_pressure;BME280_temperature;BME280_humidity;BME280_pressure;Samples;Min_cycle;Max_cycle;Signal;HPM_P1;HPM_P2
2023/06/05 00:00:07;;;;;;;3.38;2.47;;;16.80;47.70;;;;;;4993423;28;20068;-89
2023/06/05 00:02:33;;;;;;;6.53;3.42;;;16.80;48.00;;;;;;4995118;28;20038;-89
2023/06/05 00:04:58;;;;;;;6.35;2.90;;;16.70;47.80;;;;;;5005277;28;20389;-88
2023/06/05 00:07:24;;;;;;;4.53;2.67;;;16.70;48.10;;;;;;4995745;28;20034;-89
2023/06/05 00:09:50;;;;;;;3.53;2.60;;;16.70;48.20;;;;;;4988361;28;20046;-88
2023/06/05 00:12:15;;;;;;;3.42;2.63;;;16.60;48.20;;;;;;5008626;28;20084;-88
2023/06/05 00:14:43;;;;;;;4.75;2.40;;;16.60;48.20;;;;;;4997686;28;20118;-88
2023/06/05 00:17:09;;;;;;;3.58;2.25;;;16.60;48.40;;;;;;4996510;28;20030;-87
2023/06/05 00:19:34;;;;;;;4.15;2.60;;;16.50;48.30;;;;;;4997994;28;20392;-88
2023/06/05 00:22:00;;;;;;;7.93;2.58;;;16.50;48.40;;;;;;5001115;28;20034;-89
2023/06/05 00:24:26;;;;;;;3.45;2.35;;;16.40;48.40;;;;;;4994158;28;20035;-88
2023/06/05 00:26:52;;;;;;;3.80;2.75;;;16.40;48.60;;;;;;4990135;28;20027;-88
2023/06/05 00:29:17;;;;;;;4.30;2.92;;;16.30;48.70;;;;;;4996150;28;20482;-88
2023/06/05 00:31:45;;;;;;;4.88;2.60;;;16.30;48.90;;;;;;4997442;28;20026;-88
2023/06/05 00:34:12;;;;;;;3.50;2.60;;;16.30;49.00;;;;;;4997481;28;20034;-88
2023/06/05 00:36:40;;;;;;;4.18;2.55;;;16.20;49.10;;;;;;4990500;28;20050;-88
2023/06/05 00:39:06;;;;;;;3.08;2.45;;;16.20;49.10;;;;;;5001465;28;20041;-88
2023/06/05 00:41:31;;;;;;;3.75;2.60;;;16.20;49.20;;;;;;4990977;28;20026;-88
2023/06/05 00:43:58;;;;;;;3.80;2.15;;;16.10;49.20;;;;;;4986144;28;20046;-88
2023/06/05 00:46:24;;;;;;;3.88;2.40;;;16.10;49.20;;;;;;4995777;28;20478;-89
2023/06/05 00:48:50;;;;;;;7.85;2.50;;;16.00;49.20;;;;;;4991710;28;20045;-90
2023/06/05 00:51:16;;;;;;;3.63;2.78;;;16.00;49.20;;;;;;4997133;28;20113;-87
2023/06/05 00:53:44;;;;;;;3.15;2.22;;;16.00;49.30;;;;;;4992991;28;20177;-89
2023/06/05 00:56:11;;;;;;;4.43;2.80;;;15.90;49.40;;;;;;5000177;28;20484;-88
2023/06/05 00:58:36;;;;;;;3.05;2.65;;;15.90;49.40;;;;;;4994075;28;20073;-88
2023/06/05 01:01:05;;;;;;;2.95;2.55;;;15.90;49.40;;;;;;4988174;28;20087;-87
2023/06/05 01:03:33;;;;;;;4.25;2.55;;;15.80;49.50;;;;;;4993894;28;20033;-88
2023/06/05 01:06:03;;;;;;;5.57;2.13;;;15.80;49.50;;;;;;4999651;28;20060;-88
2023/06/05 01:08:30;;;;;;;7.63;2.50;;;15.80;49.60;;;;;;4990095;28;20053;-88
2023/06/05 01:11:00;;;;;;;3.40;2.30;;;15.70;49.80;;;;;;4989749;28;20062;-88
2023/06/05 01:13:31;;;;;;;4.88;2.80;;;15.70;49.90;;;;;;4990338;28;20041;-88
2023/06/05 01:15:58;;;;;;;5.32;2.28;;;15.70;50.10;;;;;;4983896;28;20026;-88
2023/06/05 01:18:24;;;;;;;8.75;2.65;;;15.70;50.00;;;;;;5012162;28;20385;-87
2023/06/05 01:20:50;;;;;;;3.92;2.30;;;15.60;49.90;;;;;;4989658;28;20484;-88
2023/06/05 01:23:16;;;;;;;4.15;2.45;;;15.60;50.10;;;;;;4997475;28;20039;-87
2023/06/05 01:25:42;;;;;;;2.65;2.38;;;15.60;50.20;;;;;;4989797;28;20080;-88
2023/06/05 01:28:12;;;;;;;3.15;2.65;;;15.50;50.20;;;;;;4993789;28;20065;-88
2023/06/05 01:30:53;;;;;;;2.95;2.17;;;15.50;50.50;;;;;;5002986;28;20037;-88
2023/06/05 01:33:26;;;;;;;3.42;2.28;;;15.50;50.70;;;;;;4989865;28;20053;-88
2023/06/05 01:35:53;;;;;;;4.55;2.45;;;15.40;50.30;;;;;;4988536;28;20068;-89
2023/06/05 01:38:20;;;;;;;3.03;2.45;;;15.40;50.30;;;;;;4991981;28;20481;-88
2023/06/05 01:40:48;;;;;;;4.70;2.97;;;15.30;50.40;;;;;;4990370;28;20026;-89
2023/06/05 01:43:15;;;;;;;2.65;2.10;;;15.30;50.60;;;;;;4994613;28;20029;-89
2023/06/05 01:45:41;;;;;;;4.20;2.63;;;15.30;50.60;;;;;;4987988;28;20061;-88
2023/06/05 01:48:13;;;;;;;4.13;2.40;;;15.20;50.60;;;;;;5000951;28;20030;-88
2023/06/05 01:50:42;;;;;;;2.88;2.30;;;15.20;50.90;;;;;;4988390;28;20641;-88
2023/06/05 01:53:09;;;;;;;4.07;2.88;;;15.20;50.70;;;;;;4990472;28;20058;-88
2023/06/05 01:55:39;;;;;;;4.35;2.40;;;15.20;50.90;;;;;;5000881;28;20060;-88
2023/06/05 01:58:05;;;;;;;2.95;2.40;;;15.10;51.00;;;;;;4996434;28;20060;-87
2023/06/05 02:00:30;;;;;;;3.58;2.75;;;15.10;50.90;;;;;;4988041;28;20026;-88
2023/06/05 02:02:56;;;;;;;5.00;2.92;;;15.10;51.00;;;;;;5011296;28;20033;-87
2023/06/05 02:05:22;;;;;;;3.42;2.42;;;15.10;51.10;;;;;;4999907;28;20037;-88
2023/06/05 02:07:53;;;;;;;4.35;2.67;;;15.00;51.00;;;;;;4995714;28;20058;-89
2023/06/05 02:10:19;;;;;;;5.30;2.60;;;15.00;51.20;;;;;;4985353;28;20039;-87
2023/06/05 02:12:46;;;;;;;5.90;3.20;;;15.00;51.30;;;;;;4997756;28;20371;-88
2023/06/05 02:15:13;;;;;;;9.05;2.65;;;15.00;51.40;;;;;;5006627;28;20088;-88
2023/06/05 02:17:50;;;;;;;3.38;2.53;;;14.90;51.40;;;;;;4991983;28;20057;-88
2023/06/05 02:20:17;;;;;;;5.60;2.72;;;14.90;51.90;;;;;;4994752;28;20453;-86
2023/06/05 02:22:44;;;;;;;3.63;2.78;;;14.80;51.50;;;;;;4984875;28;20128;-89
2023/06/05 02:25:12;;;;;;;5.68;2.70;;;14.80;51.70;;;;;;4987405;28;20489;-88
2023/06/05 02:27:38;;;;;;;3.38;2.45;;;14.80;51.80;;;;;;4991561;28;20103;-89
2023/06/05 02:30:04;;;;;;;5.07;2.97;;;14.80;51.70;;;;;;4995118;28;20038;-89
2023/06/05 02:32:31;;;;;;;7.22;2.80;;;14.80;51.80;;;;;;4991276;28;20080;-89
2023/06/05 02:34:57;;;;;;;4.30;2.60;;;14.70;51.70;;;;;;4998018;28;20038;-88
2023/06/05 02:37:27;;;;;;;5.22;2.80;;;14.70;51.70;;;;;;4983163;28;20070;-89
2023/06/05 02:39:53;;;;;;;6.95;2.85;;;14.60;52.20;;;;;;4993124;28;20121;-89
2023/06/05 02:42:19;;;;;;;4.82;2.47;;;14.70;52.00;;;;;;4992474;28;20065;-88
2023/06/05 02:44:48;;;;;;;4.20;2.60;;;14.60;51.90;;;;;;4983256;28;20045;-88
2023/06/05 02:47:14;;;;;;;5.53;2.67;;;14.60;52.10;;;;;;5002930;28;20085;-88
2023/06/05 02:49:40;;;;;;;5.25;2.70;;;14.60;52.10;;;;;;5000311;28;20025;-88
2023/06/05 02:52:06;;;;;;;5.38;2.55;;;14.60;52.30;;;;;;4989200;28;20046;-87
2023/06/05 02:54:31;;;;;;;3.88;2.55;;;14.50;52.20;;;;;;5002180;28;20074;-89
2023/06/05 02:57:00;;;;;;;3.50;2.50;;;14.50;52.30;;;;;;4990363;28;20526;-88
2023/06/05 02:59:27;;;;;;;6.70;2.78;;;14.50;52.40;;;;;;4986282;28;20030;-89
2023/06/05 03:01:53;;;;;;;3.65;2.50;;;14.50;52.50;;;;;;5004454;28;20366;-90
2023/06/05 03:04:21;;;;;;;4.68;2.78;;;14.40;52.60;;;;;;5002702;28;20169;-88
2023/06/05 03:06:53;;;;;;;5.13;2.80;;;14.40;52.60;;;;;;4983736;28;20026;-89
2023/06/05 03:09:19;;;;;;;3.60;2.70;;;14.40;52.90;;;;;;4989061;28;20776;-89
2023/06/05 03:11:44;;;;;;;3.42;2.70;;;14.40;52.60;;;;;;4987103;28;20481;-89
2023/06/05 03:14:10;;;;;;;3.55;2.33;;;14.40;52.60;;;;;;4989844;28;20120;-89
2023/06/05 03:16:43;;;;;;;8.27;2.70;;;14.40;52.80;;;;;;4991128;28;20053;-88
2023/06/05 03:19:10;;;;;;;3.40;2.25;;;14.30;52.80;;;;;;4983593;28;20040;-88
2023/06/05 03:21:37;;;;;;;3.53;2.50;;;14.30;52.80;;;;;;4990777;28;20120;-89
2023/06/05 03:24:14;;;;;;;3.08;2.70;;;14.30;52.80;;;;;;4982574;28;20543;-89
2023/06/05 03:26:40;;;;;;;4.18;2.63;;;14.30;53.00;;;;;;4988483;28;20042;-89
2023/06/05 03:29:07;;;;;;;3.28;2.40;;;14.30;53.10;;;;;;4998676;28;20470;-89
2023/06/05 03:31:33;;;;;;;4.38;2.78;;;14.20;53.10;;;;;;5010062;28;20030;-89
2023/06/05 03:33:59;;;;;;;4.22;2.60;;;14.20;53.20;;;;;;4980709;28;20039;-89
2023/06/05 03:36:27;;;;;;;4.82;2.72;;;14.20;53.20;;;;;;4997012;28;20057;-89
2023/06/05 03:38:53;;;;;;;5.28;2.72;;;14.20;53.30;;;;;;4986117;28;20064;-88
2023/06/05 03:41:20;;;;;;;2.85;2.25;;;14.20;53.40;;;;;;4995070;28;20045;-89
2023/06/05 03:43:46;;;;;;;2.92;2.15;;;14.20;53.40;;;;;;5012664;28;20442;-89
2023/06/05 03:46:17;;;;;;;5.18;2.50;;;14.20;53.40;;;;;;5018788;28;20062;-90
2023/06/05 03:48:44;;;;;;;5.32;2.40;;;14.20;53.50;;;;;;4999336;28;20531;-87
2023/06/05 03:51:09;;;;;;;5.00;2.70;;;14.20;53.50;;;;;;5006792;28;20079;-88
2023/06/05 03:53:39;;;;;;;6.40;2.65;;;14.20;53.60;;;;;;4990302;28;20034;-88
2023/06/05 03:56:05;;;;;;;5.43;2.78;;;14.10;53.60;;;;;;4993739;28;20065;-88
2023/06/05 03:58:31;;;;;;;7.45;2.95;;;14.10;53.60;;;;;;4993881;28;20033;-88
2023/06/05 04:00:57;;;;;;;4.35;2.60;;;14.10;53.60;;;;;;4990664;28;20035;-88
2023/06/05 04:03:23;;;;;;;3.20;2.38;;;14.10;53.60;;;;;;5002296;28;20131;-89
2023/06/05 04:05:49;;;;;;;7.38;2.85;;;14.10;53.70;;;;;;4985918;28;20030;-88
2023/06/05 04:08:14;;;;;;;5.10;2.78;;;14.10;53.90;;;;;;4995549;28;20659;-88
2023/06/05 04:10:40;;;;;;;6.45;2.50;;;14.10;54.00;;;;;;4993271;28;20034;-88
2023/06/05 04:13:06;;;;;;;6.22;2.97;;;14.10;54.00;;;;;;4983790;28;20042;-89
2023/06/05 04:15:33;;;;;;;8.20;3.08;;;14.10;53.90;;;;;;4997184;28;20038;-89
2023/06/05 04:17:59;;;;;;;3.92;2.45;;;14.10;53.90;;;;;;5002304;28;20053;-88
2023/06/05 04:20:25;;;;;;;6.85;3.75;;;14.20;54.10;;;;;;4998004;28;20033;-88
2023/06/05 04:22:51;;;;;;;8.70;3.00;;;14.20;54.10;;;;;;5010966;28;20508;-87
2023/06/05 04:25:17;;;;;;;5.50;2.88;;;14.20;54.10;;;;;;4995663;28;20034;-87
2023/06/05 04:27:44;;;;;;;7.45;3.00;;;14.20;54.10;;;;;;4993971;28;20048;-88
2023/06/05 04:30:12;;;;;;;4.95;2.90;;;14.30;54.20;;;;;;4993607;28;20138;-87
2023/06/05 04:32:39;;;;;;;8.05;3.13;;;14.40;54.30;;;;;;4989354;28;20042;-88
2023/06/05 04:35:11;;;;;;;7.45;3.33;;;14.40;54.40;;;;;;5009426;28;20026;-87
2023/06/05 04:37:38;;;;;;;10.90;2.95;;;14.50;54.30;;;;;;4981602;28;20077;-90
2023/06/05 04:40:05;;;;;;;4.95;2.80;;;14.60;54.20;;;;;;4987493;28;20031;-88
2023/06/05 04:42:32;;;;;;;3.60;2.65;;;14.60;54.20;;;;;;4997002;28;20033;-87
2023/06/05 04:45:01;;;;;;;4.97;3.15;;;14.60;54.10;;;;;;4988866;28;20038;-88
2023/06/05 04:47:27;;;;;;;5.22;3.13;;;14.70;54.10;;;;;;4995127;28;20690;-90
2023/06/05 04:49:54;;;;;;;6.32;2.80;;;14.80;54.00;;;;;;5009555;28;20030;-88
2023/06/05 04:52:20;;;;;;;5.00;2.70;;;14.80;53.80;;;;;;5010309;28;20466;-88
2023/06/05 04:54:47;;;;;;;5.55;3.08;;;14.90;53.90;;;;;;4998426;28;20029;-87
2023/06/05 04:57:13;;;;;;;4.82;3.20;;;14.90;54.10;;;;;;4996671;28;20058;-87
2023/06/05 04:59:38;;;;;;;4.28;2.63;;;15.00;54.00;;;;;;5013029;28;20284;-89
2023/06/05 05:02:04;;;;;;;10.20;2.92;;;15.10;54.00;;;;;;4990055;28;20026;-88
2023/06/05 05:04:30;;;;;;;6.93;3.20;;;15.20;54.00;;;;;;4995442;28;20030;-89
2023/06/05 05:07:00;;;;;;;7.93;2.95;;;15.40;54.00;;;;;;4987710;28;20034;-88
2023/06/05 05:09:27;;;;;;;16.63;3.13;;;15.50;54.00;;;;;;4991800;28;20027;-88
2023/06/05 05:11:53;;;;;;;9.40;3.15;;;15.60;54.10;;;;;;4996832;28;20033;-87
2023/06/05 05:14:18;;;;;;;6.70;2.97;;;15.80;53.90;;;;;;4993498;28;20046;-89
2023/06/05 05:16:44;;;;;;;7.95;3.33;;;15.90;53.80;;;;;;4986040;28;20450;-87
2023/06/05 05:19:10;;;;;;;7.85;3.30;;;16.10;53.70;;;;;;4993770;28;20035;-88
2023/06/05 05:21:40;;;;;;;12.35;3.75;;;16.20;53.70;;;;;;4987598;28;20501;-88
2023/06/05 05:24:06;;;;;;;12.85;3.65;;;16.40;53.70;;;;;;4996937;28;20044;-87
2023/06/05 05:26:32;;;;;;;11.27;2.97;;;16.60;53.30;;;;;;4993503;28;20084;-87
2023/06/05 05:28:58;;;;;;;7.30;3.35;;;16.80;52.90;;;;;;4991151;28;20026;-87
2023/06/05 05:31:24;;;;;;;6.28;3.00;;;16.90;52.70;;;;;;4990120;28;20030;-88
2023/06/05 05:33:49;;;;;;;8.95;3.20;;;17.10;52.70;;;;;;4991778;28;20092;-87
2023/06/05 05:36:15;;;;;;;6.05;3.20;;;17.20;52.60;;;;;;5001265;28;20045;-88
2023/06/05 05:38:41;;;;;;;9.45;3.22;;;17.40;52.50;;;;;;4996648;28;20069;-88
2023/06/05 05:41:07;;;;;;;10.82;3.38;;;17.50;52.10;;;;;;4996883;28;20101;-88
2023/06/05 05:43:32;;;;;;;7.25;3.55;;;17.60;51.80;;;;;;4996923;28;20037;-88
2023/06/05 05:45:58;;;;;;;10.82;3.13;;;17.70;51.70;;;;;;4995058;28;20026;-88
2023/06/05 05:48:24;;;;;;;7.22;3.45;;;17.80;51.50;;;;;;5000219;28;20057;-91
2023/06/05 05:50:50;;;;;;;9.07;3.28;;;18.00;51.30;;;;;;4992141;28;20038;-88
2023/06/05 05:53:15;;;;;;;9.07;3.10;;;18.10;51.30;;;;;;4990976;28;20034;-88
2023/06/05 05:55:41;;;;;;;7.40;2.90;;;18.30;51.10;;;;;;4988186;28;20030;-88
2023/06/05 05:58:07;;;;;;;5.43;3.08;;;18.40;50.80;;;;;;4993491;28;20031;-88
2023/06/05 06:00:34;;;;;;;7.75;3.20;;;18.60;50.70;;;;;;4988547;28;20062;-87
2023/06/05 06:03:00;;;;;;;8.40;3.90;;;18.70;50.40;;;;;;4982206;28;20034;-87
2023/06/05 06:05:25;;;;;;;10.00;3.90;;;18.80;50.20;;;;;;4993428;28;20092;-88
2023/06/05 06:07:52;;;;;;;4.88;3.08;;;18.90;50.20;;;;;;4988249;28;20026;-88
2023/06/05 06:10:18;;;;;;;10.52;2.92;;;19.00;50.30;;;;;;4989520;28;20117;-87
2023/06/05 06:12:45;;;;;;;10.30;3.17;;;19.10;50.30;;;;;;4986974;28;20088;-88
2023/06/05 06:15:11;;;;;;;14.48;2.90;;;19.30;50.20;;;;;;5001877;28;20026;-88
2023/06/05 06:17:37;;;;;;;7.47;2.97;;;19.40;49.90;;;;;;4991655;28;20030;-88
2023/06/05 06:20:05;;;;;;;8.13;3.35;;;19.50;49.70;;;;;;4989159;28;20027;-87
2023/06/05 06:23:26;;;;;;;4.45;2.85;;;19.60;49.40;;;;;;4998763;28;20035;-87
2023/06/05 06:25:51;;;;;;;9.18;2.90;;;19.70;49.20;;;;;;4988087;28;20030;-87
2023/06/05 06:28:19;;;;;;;5.60;2.80;;;19.80;49.10;;;;;;4986397;28;20026;-87
2023/06/05 06:30:45;;;;;;;5.72;3.15;;;19.80;49.00;;;;;;4993949;28;20385;-88
2023/06/05 06:33:10;;;;;;;4.07;2.78;;;19.90;49.00;;;;;;4981148;28;20050;-88
2023/06/05 06:35:36;;;;;;;10.98;2.88;;;19.90;49.00;;;;;;4988365;28;20515;-87
2023/06/05 06:38:02;;;;;;;5.65;2.97;;;20.00;49.00;;;;;;4986198;28;20031;-88
2023/06/05 06:40:29;;;;;;;5.88;2.67;;;20.00;49.00;;;;;;4995636;28;20113;-86
2023/06/05 06:42:55;;;;;;;4.20;2.65;;;20.10;49.30;;;;;;4989117;28;20026;-88
2023/06/05 06:45:21;;;;;;;8.13;3.10;;;20.30;50.20;;;;;;4987006;28;20033;-88
2023/06/05 06:47:47;;;;;;;6.38;2.92;;;20.50;50.20;;;;;;4986230;28;20410;-87
2023/06/05 06:50:14;;;;;;;3.55;2.40;;;20.60;49.90;;;;;;4995966;28;20049;-87
2023/06/05 06:52:39;;;;;;;6.45;2.90;;;20.70;49.70;;;;;;4987231;28;20044;-87
2023/06/05 06:55:06;;;;;;;8.57;2.53;;;20.80;49.30;;;;;;4985817;28;20113;-88
2023/06/05 06:57:32;;;;;;;5.60;2.70;;;20.90;48.70;;;;;;4986622;28;20030;-87
2023/06/05 06:59:58;;;;;;;7.60;2.97;;;21.00;48.80;;;;;;4989245;28;20045;-87
2023/06/05 07:02:25;;;;;;;9.75;2.70;;;21.10;48.30;;;;;;4989555;28;20027;-87
2023/06/05 07:04:53;;;;;;;5.13;2.78;;;21.10;48.20;;;;;;4991987;28;20088;-87
2023/06/05 07:07:21;;;;;;;11.15;2.70;;;21.10;48.60;;;;;;4983707;28;20034;-88
2023/06/05 07:09:49;;;;;;;9.13;2.80;;;21.20;48.70;;;;;;4997285;28;20030;-87
2023/06/05 07:12:17;;;;;;;8.20;2.90;;;21.20;48.10;;;;;;4996493;28;20038;-87
2023/06/05 07:14:43;;;;;;;6.65;3.20;;;21.30;48.10;;;;;;5003833;28;20039;-87
2023/06/05 07:17:09;;;;;;;7.97;2.97;;;21.40;48.50;;;;;;5001247;28;20038;-87
2023/06/05 07:19:38;;;;;;;5.47;3.22;;;21.50;48.30;;;;;;4993196;28;20061;-86
2023/06/05 07:22:04;;;;;;;8.65;3.25;;;21.60;48.80;;;;;;4983715;28;20033;-88
2023/06/05 07:24:31;;;;;;;7.65;3.15;;;21.70;48.60;;;;;;4998572;28;20037;-91
2023/06/05 07:27:00;;;;;;;6.22;3.88;;;21.80;48.60;;;;;;4987967;28;20030;-88
2023/06/05 07:29:26;;;;;;;6.30;3.22;;;21.90;48.60;;;;;;4988622;28;20069;-87
2023/06/05 07:31:54;;;;;;;11.85;3.05;;;22.00;48.90;;;;;;4995798;28;20041;-88
2023/06/05 07:34:20;;;;;;;4.40;2.95;;;22.20;49.00;;;;;;5017956;28;20042;-90
2023/06/05 07:36:48;;;;;;;7.22;3.22;;;22.30;48.70;;;;;;5001202;28;20054;-87
2023/06/05 07:39:14;;;;;;;6.18;3.33;;;22.50;48.70;;;;;;5012496;28;20018;-89
2023/06/05 07:41:41;;;;;;;10.95;3.90;;;22.60;48.10;;;;;;5006300;28;20121;-88
2023/06/05 07:44:09;;;;;;;5.00;3.22;;;22.70;48.30;;;;;;4995178;28;20038;-87
2023/06/05 07:46:36;;;;;;;6.13;3.30;;;22.80;48.10;;;;;;5004003;28;20492;-87
2023/06/05 07:49:02;;;;;;;4.53;3.28;;;22.90;48.60;;;;;;4992693;28;20053;-88
2023/06/05 07:51:27;;;;;;;6.38;2.80;;;23.10;48.80;;;;;;4998730;28;20023;-88
2023/06/05 07:53:53;;;;;;;7.53;3.05;;;23.20;47.70;;;;;;5014322;28;20038;-88
2023/06/05 07:56:19;;;;;;;6.35;3.28;;;23.30;47.50;;;;;;5000695;28;20393;-88
2023/06/05 07:58:46;;;;;;;6.20;2.90;;;23.40;48.10;;;;;;4991523;28;20026;-88
2023/06/05 08:01:12;;;;;;;6.63;2.90;;;23.50;48.40;;;;;;5012216;28;20033;-89
2023/06/05 08:03:37;;;;;;;6.85;2.83;;;23.60;47.50;;;;;;4989404;28;20034;-87
2023/06/05 08:06:03;;;;;;;6.93;2.95;;;23.80;47.50;;;;;;4993060;28;20485;-87
2023/06/05 08:08:31;;;;;;;6.88;2.95;;;23.80;47.40;;;;;;4983941;28;20038;-88
2023/06/05 08:10:56;;;;;;;4.45;2.97;;;23.90;47.60;;;;;;4999355;28;20037;-87
2023/06/05 08:13:22;;;;;;;7.65;3.00;;;24.00;47.00;;;;;;4993651;28;20041;-87
2023/06/05 08:15:48;;;;;;;4.70;2.65;;;24.10;46.50;;;;;;4997849;28;20466;-88
2023/06/05 08:18:15;;;;;;;5.80;3.05;;;24.20;45.70;;;;;;4988124;28;20030;-88
2023/06/05 08:20:41;;;;;;;4.63;3.30;;;24.20;45.60;;;;;;4982431;28;20119;-88
2023/06/05 08:23:06;;;;;;;4.55;2.83;;;24.30;46.10;;;;;;4984445;28;20042;-87
2023/06/05 08:25:32;;;;;;;4.38;2.78;;;24.40;45.90;;;;;;4987693;28;20033;-91
2023/06/05 08:27:58;;;;;;;6.38;3.13;;;24.50;45.90;;;;;;4989589;28;20065;-88
2023/06/05 08:30:24;;;;;;;4.07;3.10;;;24.50;45.90;;;;;;4996652;28;20065;-86
2023/06/05 08:32:49;;;;;;;4.20;2.70;;;24.60;44.70;;;;;;4991476;28;20045;-88
2023/06/05 08:35:15;;;;;;;12.40;2.97;;;24.70;44.50;;;;;;4990925;28;20044;-91
2023/06/05 08:37:41;;;;;;;4.28;2.90;;;24.80;44.30;;;;;;4987589;28;20430;-89
2023/06/05 08:40:10;;;;;;;4.15;2.60;;;24.90;44.30;;;;;;4990738;28;20533;-89
2023/06/05 08:42:37;;;;;;;5.20;2.50;;;25.00;44.50;;;;;;4990771;28;20022;-89
2023/06/05 08:45:06;;;;;;;7.15;3.17;;;25.00;44.20;;;;;;4998104;28;20029;-90
2023/06/05 08:47:32;;;;;;;3.63;2.88;;;25.20;44.50;;;;;;4990206;28;20030;-88
2023/06/05 08:50:04;;;;;;;4.35;2.75;;;25.20;45.00;;;;;;4980680;28;20031;-88
2023/06/05 08:52:33;;;;;;;5.13;2.80;;;25.40;43.60;;;;;;4989940;28;20038;-87
2023/06/05 08:54:58;;;;;;;5.53;3.10;;;25.40;43.90;;;;;;4990297;28;20056;-89
2023/06/05 08:57:24;;;;;;;4.40;3.08;;;25.60;43.50;;;;;;4992742;28;20062;-88
2023/06/05 08:59:51;;;;;;;9.25;2.80;;;25.60;42.20;;;;;;4992865;28;20035;-88
2023/06/05 09:02:17;;;;;;;8.48;3.00;;;25.80;41.20;;;;;;4991844;28;20038;-88
2023/06/05 09:04:43;;;;;;;4.68;2.80;;;25.80;40.30;;;;;;5003972;28;20043;-92
2023/06/05 09:07:10;;;;;;;5.05;2.80;;;25.80;40.20;;;;;;4993469;28;20058;-90
2023/06/05 09:09:36;;;;;;;3.08;2.53;;;25.80;40.30;;;;;;4983577;28;20038;-88
2023/06/05 09:12:08;;;;;;;4.47;2.83;;;25.80;39.90;;;;;;4990755;28;20034;-89
2023/06/05 09:14:35;;;;;;;6.63;2.90;;;25.90;38.60;;;;;;4985410;28;20426;-88
2023/06/05 09:17:03;;;;;;;4.07;2.80;;;25.90;39.00;;;;;;4990798;28;20038;-88
2023/06/05 09:19:50;;;;;;;5.05;2.70;;;25.90;38.50;;;;;;4995547;28;20034;-88
2023/06/05 09:22:31;;;;;;;5.72;2.72;;;25.80;37.10;;;;;;4987118;28;20434;-88
2023/06/05 09:24:57;;;;;;;4.32;2.78;;;25.80;37.70;;;;;;4995017;28;20084;-86
2023/06/05 09:27:23;;;;;;;5.60;2.53;;;25.70;37.70;;;;;;4988369;28;20064;-88
2023/06/05 09:30:03;;;;;;;5.45;2.85;;;25.70;36.40;;;;;;4992449;28;20038;-87
2023/06/05 09:32:30;;;;;;;3.63;2.33;;;25.60;36.20;;;;;;4982915;28;20092;-88
2023/06/05 09:35:03;;;;;;;5.72;2.50;;;25.50;37.50;;;;;;4993071;28;20038;-88
2023/06/05 09:37:36;;;;;;;5.20;2.67;;;25.40;37.60;;;;;;4982560;28;20478;-87
2023/06/05 09:40:04;;;;;;;4.80;2.60;;;25.40;35.40;;;;;;4993519;28;20125;-88
2023/06/05 09:42:34;;;;;;;3.72;2.50;;;25.30;36.90;;;;;;4992006;28;20123;-87
2023/06/05 09:45:01;;;;;;;4.55;2.50;;;25.20;36.40;;;;;;4990078;28;20394;-88
2023/06/05 09:47:27;;;;;;;11.88;2.80;;;25.20;37.20;;;;;;4992723;28;20041;-88
2023/06/05 09:49:52;;;;;;;4.45;2.30;;;25.30;37.20;;;;;;4996008;28;20035;-88
2023/06/05 09:52:19;;;;;;;5.68;2.72;;;25.40;36.30;;;;;;5004218;28;20030;-88
2023/06/05 09:54:46;;;;;;;3.90;2.50;;;25.60;36.50;;;;;;4996507;28;20191;-87
2023/06/05 09:57:14;;;;;;;3.13;2.20;;;25.70;36.60;;;;;;5010782;28;20036;-87
2023/06/05 10:00:04;;;;;;;4.38;2.60;;;25.90;36.70;;;;;;4995636;28;20034;-88
2023/06/05 10:02:35;;;;;;;6.55;2.38;;;26.20;35.20;;;;;;4984389;28;20462;-89
2023/06/05 10:05:04;;;;;;;3.80;2.25;;;26.40;35.60;;;;;;4988153;28;20031;-87
2023/06/05 10:07:35;;;;;;;4.68;2.90;;;26.50;35.80;;;;;;5016772;28;20548;-88
2023/06/05 10:10:02;;;;;;;8.02;2.85;;;26.60;35.50;;;;;;4992016;28;20141;-87
2023/06/05 10:12:30;;;;;;;7.90;2.90;;;26.70;36.40;;;;;;4988837;28;20137;-87
2023/06/05 10:14:57;;;;;;;5.15;2.60;;;26.90;36.40;;;;;;4989979;28;20045;-88
2023/06/05 10:17:24;;;;;;;6.47;2.50;;;27.00;36.10;;;;;;5002486;28;20035;-87
2023/06/05 10:19:51;;;;;;;4.15;2.60;;;27.00;35.90;;;;;;4998123;28;20037;-88
2023/06/05 10:22:20;;;;;;;5.13;2.47;;;27.10;35.40;;;;;;4993745;28;20461;-87
2023/06/05 10:25:04;;;;;;;7.00;2.90;;;27.10;34.60;;;;;;4986901;28;20041;-88
2023/06/05 10:27:51;;;;;;;5.20;2.80;;;27.00;34.60;;;;;;4985940;28;20034;-87
2023/06/05 10:30:55;;;;;;;7.30;2.60;;;26.90;34.40;;;;;;4995477;28;20037;-87
2023/06/05 10:33:25;;;;;;;3.83;2.57;;;26.90;34.60;;;;;;4932799;29;20035;-88
2023/06/05 10:36:05;;;;;;;7.10;2.50;;;27.00;35.60;;;;;;4921321;29;20304;-88
2023/06/05 10:38:33;;;;;;;6.38;3.17;;;27.10;34.60;;;;;;4919561;29;20035;-87
2023/06/05 10:41:02;;;;;;;4.68;2.50;;;27.20;34.90;;;;;;4937270;29;20066;-87
2023/06/05 10:43:35;;;;;;;7.78;2.67;;;27.40;34.60;;;;;;4925147;29;20511;-88
2023/06/05 10:46:22;;;;;;;2.53;2.33;;;27.60;34.90;;;;;;4930278;29;20031;-88
2023/06/05 10:49:10;;;;;;;3.85;2.72;;;27.80;36.30;;;;;;4921111;29;20039;-87
2023/06/05 10:51:39;;;;;;;6.90;2.58;;;28.00;35.00;;;;;;4920479;29;20043;-91
2023/06/05 10:54:09;;;;;;;4.60;3.15;;;28.10;34.40;;;;;;4926043;29;20091;-87
2023/06/05 10:57:01;;;;;;;6.68;2.95;;;28.30;33.90;;;;;;4919144;29;20118;-86
2023/06/05 10:59:27;;;;;;;3.33;2.50;;;28.50;32.80;;;;;;4920711;29;20027;-87
2023/06/05 11:02:06;;;;;;;3.40;2.22;;;28.60;33.10;;;;;;4930206;29;20122;-87
2023/06/05 11:04:47;;;;;;;4.53;2.63;;;28.50;32.30;;;;;;4984078;28;20422;-91
2023/06/05 11:07:26;;;;;;;3.17;2.67;;;28.60;31.20;;;;;;4982570;28;20042;-87
2023/06/05 11:10:04;;;;;;;4.15;2.78;;;28.70;31.40;;;;;;4998193;28;20424;-87
2023/06/05 11:12:39;;;;;;;3.70;2.60;;;28.80;32.10;;;;;;4993216;28;20053;-88
2023/06/05 11:15:34;;;;;;;5.43;2.90;;;28.80;30.70;;;;;;4996647;28;20048;-92
2023/06/05 11:18:32;;;;;;;3.95;2.47;;;28.70;31.60;;;;;;4996763;28;20039;-88
2023/06/05 11:21:00;;;;;;;4.18;2.55;;;28.60;33.20;;;;;;4994955;28;20071;-87
2023/06/05 11:23:29;;;;;;;5.28;3.00;;;28.60;33.40;;;;;;4984649;28;20034;-89
2023/06/05 11:26:19;;;;;;;7.50;2.50;;;28.60;31.80;;;;;;4992416;28;20030;-88
2023/06/05 11:28:45;;;;;;;3.08;2.25;;;28.50;31.00;;;;;;4988786;28;20030;-87
2023/06/05 11:31:11;;;;;;;10.70;2.75;;;28.50;30.90;;;;;;4995875;28;20749;-88
2023/06/05 11:33:37;;;;;;;5.60;3.20;;;28.40;30.70;;;;;;4996779;28;20050;-89
2023/06/05 11:36:07;;;;;;;6.22;2.83;;;28.30;30.70;;;;;;5003429;28;20050;-88
2023/06/05 11:38:33;;;;;;;4.43;2.55;;;28.10;30.20;;;;;;4989214;28;20022;-88
2023/06/05 11:40:59;;;;;;;6.32;3.10;;;28.00;31.30;;;;;;5007368;28;20084;-88
2023/06/05 11:43:25;;;;;;;6.78;2.78;;;28.00;31.00;;;;;;4998190;28;20031;-89
2023/06/05 11:45:52;;;;;;;3.67;2.50;;;28.00;32.40;;;;;;4987689;28;20113;-88
2023/06/05 11:48:17;;;;;;;4.57;2.40;;;28.00;31.30;;;;;;5010214;28;20030;-88
2023/06/05 11:51:01;;;;;;;4.15;2.53;;;28.10;30.90;;;;;;4989707;28;20034;-88
2023/06/05 11:53:28;;;;;;;3.53;2.50;;;28.30;30.90;;;;;;4985326;28;20084;-88
2023/06/05 11:56:06;;;;;;;6.57;2.50;;;28.40;30.80;;;;;;4989730;28;20030;-88
2023/06/05 11:58:37;;;;;;;10.80;2.75;;;28.50;30.20;;;;;;4980891;28;20034;-87
2023/06/05 12:01:17;;;;;;;7.90;2.60;;;28.60;30.70;;;;;;5005208;28;20064;-88
2023/06/05 12:03:44;;;;;;;6.15;3.10;;;28.60;29.70;;;;;;4984680;28;20037;-88
2023/06/05 12:06:12;;;;;;;8.60;3.13;;;28.60;30.60;;;;;;4990257;28;20473;-89
2023/06/05 12:08:39;;;;;;;4.63;2.85;;;28.60;29.80;;;;;;4993882;28;20033;-88
2023/06/05 12:11:21;;;;;;;5.18;3.00;;;28.60;29.60;;;;;;4992537;28;20385;-89
2023/06/05 12:13:48;;;;;;;3.33;2.60;;;28.70;29.70;;;;;;4986092;28;20057;-88
2023/06/05 12:16:15;;;;;;;4.13;2.80;;;28.80;30.20;;;;;;4990435;28;20092;-88
2023/06/05 12:18:41;;;;;;;5.35;2.88;;;28.90;29.60;;;;;;4985205;28;20061;-87
2023/06/05 12:21:18;;;;;;;5.93;2.75;;;29.00;30.60;;;;;;4984066;28;20030;-89
2023/06/05 12:23:44;;;;;;;5.57;2.75;;;29.10;30.00;;;;;;4991588;28;20029;-87
2023/06/05 12:26:09;;;;;;;3.50;2.60;;;29.20;30.60;;;;;;4994190;28;20362;-88
2023/06/05 12:28:36;;;;;;;5.70;2.63;;;29.40;31.00;;;;;;4990387;28;20080;-88
2023/06/05 12:31:02;;;;;;;7.05;3.15;;;29.60;30.40;;;;;;4980095;28;20142;-88
2023/06/05 12:33:28;;;;;;;5.25;2.60;;;29.80;29.30;;;;;;4986273;28;20120;-88
2023/06/05 12:36:06;;;;;;;13.45;2.92;;;29.90;29.10;;;;;;5010074;28;20082;-87
2023/06/05 12:38:41;;;;;;;7.22;2.60;;;30.00;28.90;;;;;;4992956;28;20056;-88
2023/06/05 12:41:10;;;;;;;4.88;2.33;;;30.00;28.40;;;;;;5002209;28;20035;-87
2023/06/05 12:43:36;;;;;;;4.28;2.50;;;29.80;28.60;;;;;;4997583;28;20469;-87
2023/06/05 12:46:02;;;;;;;5.35;2.90;;;29.80;28.80;;;;;;4988160;28;20032;-88
2023/06/05 12:48:28;;;;;;;3.25;2.38;;;29.60;27.90;;;;;;4997873;28;20026;-87
2023/06/05 12:50:56;;;;;;;5.80;2.40;;;29.40;28.10;;;;;;4994781;28;20678;-91